sensor_id;sensor_type;location;lat;lon;timestamp;P1;durP1;ratioP1;P2;durP2;ratioP2
7529;SDS011;3806;52.270;10.544;2023-02-28T00:00:29;6.72;;;4.15;;
7529;SDS011;3806;52.270;10.544;2023-02-28T00:02:55;8.23;;;5.03;;
7529;SDS011;3806;52.270;10.544;2023-02-28T00:05:22;10.07;;;4.30;;
7529;SDS011;3806;52.270;10.544;2023-02-28T00:07:48;6.20;;;4.13;;
7529;SDS011;3806;52.270;10.544;2023-02-28T00:10:16;5.72;;;3.33;;
7529;SDS011;3806;52.270;10.544;2023-02-28T00:12:48;7.13;;;4.13;;
7529;SDS011;3806;52.270;10.544;2023-02-28T00:15:17;5.38;;;3.38;;
7529;SDS011;3806;52.270;10.544;2023-02-28T00:17:43;4.05;;;3.30;;
7529;SDS011;3806;52.270;10.544;2023-02-28T00:20:09;8.23;;;4.45;;
7529;SDS011;3806;52.270;10.544;2023-02-28T00:22:47;7.22;;;4.32;;
7529;SDS011;3806;52.270;10.544;2023-02-28T00:25:15;8.30;;;4.00;;
7529;SDS011;3806;52.270;10.544;2023-02-28T00:27:44;7.90;;;3.72;;
7529;SDS011;3806;52.270;10.544;2023-02-28T00:30:11;6.82;;;4.18;;
7529;SDS011;3806;52.270;10.544;2023-02-28T00:32:38;6.40;;;4.18;;
7529;SDS011;3806;52.270;10.544;2023-02-28T00:35:04;8.02;;;4.47;;
7529;SDS011;3806;52.270;10.544;2023-02-28T00:37:31;7.13;;;5.00;;
7529;SDS011;3806;52.270;10.544;2023-02-28T00:39:57;5.20;;;3.65;;
7529;SDS011;3806;52.270;10.544;2023-02-28T00:42:22;4.57;;;3.53;;
7529;SDS011;3806;52.270;10.544;2023-02-28T00:44:49;10.07;;;4.78;;
7529;SDS011;3806;52.270;10.544;2023-02-28T00:47:14;6.15;;;3.88;;
7529;SDS011;3806;52.270;10.544;2023-02-28T00:49:40;6.65;;;4.32;;
7529;SDS011;3806;52.270;10.544;2023-02-28T00:52:05;5.95;;;3.63;;
7529;SDS011;3806;52.270;10.544;2023-02-28T00:54:31;6.97;;;3.67;;
7529;SDS011;3806;52.270;10.544;2023-02-28T00:56:56;8.02;;;4.05;;
7529;SDS011;3806;52.270;10.544;2023-02-28T00:59:22;5.22;;;4.15;;
7529;SDS011;3806;52.270;10.544;2023-02-28T01:01:47;4.72;;;3.20;;
7529;SDS011;3806;52.270;10.544;2023-02-28T01:04:13;6.50;;;4.07;;
7529;SDS011;3806;52.270;10.544;2023-02-28T01:06:39;7.85;;;3.97;;
7529;SDS011;3806;52.270;10.544;2023-02-28T01:09:05;5.97;;;3.97;;
7529;SDS011;3806;52.270;10.544;2023-02-28T01:11:31;6.55;;;3.83;;
7529;SDS011;3806;52.270;10.544;2023-02-28T01:13:58;9.25;;;4.47;;
7529;SDS011;3806;52.270;10.544;2023-02-28T01:16:24;6.50;;;4.45;;
7529;SDS011;3806;52.270;10.544;2023-02-28T01:18:49;6.93;;;3.50;;
7529;SDS011;3806;52.270;10.544;2023-02-28T01:21:16;6.93;;;3.88;;
7529;SDS011;3806;52.270;10.544;2023-02-28T01:23:43;6.75;;;3.88;;
7529;SDS011;3806;52.270;10.544;2023-02-28T01:26:27;5.93;;;3.90;;
7529;SDS011;3806;52.270;10.544;2023-02-28T01:28:53;6.15;;;3.72;;
7529;SDS011;3806;52.270;10.544;2023-02-28T01:31:19;7.75;;;4.13;;
7529;SDS011;3806;52.270;10.544;2023-02-28T01:33:45;7.10;;;3.88;;
7529;SDS011;3806;52.270;10.544;2023-02-28T01:36:13;6.57;;;4.38;;
7529;SDS011;3806;52.270;10.544;2023-02-28T01:38:40;6.97;;;4.22;;
7529;SDS011;3806;52.270;10.544;2023-02-28T01:41:06;8.77;;;4.50;;
7529;SDS011;3806;52.270;10.544;2023-02-28T01:46:07;8.02;;;3.95;;
7529;SDS011;3806;52.270;10.544;2023-02-28T01:48:33;7.90;;;4.70;;
7529;SDS011;3806;52.270;10.544;2023-02-28T01:51:05;7.45;;;4.47;;
7529;SDS011;3806;52.270;10.544;2023-02-28T01:53:36;7.68;;;4.35;;
7529;SDS011;3806;52.270;10.544;2023-02-28T01:56:09;9.35;;;4.35;;
7529;SDS011;3806;52.270;10.544;2023-02-28T01:58:38;4.95;;;3.13;;
7529;SDS011;3806;52.270;10.544;2023-02-28T02:01:03;7.32;;;3.53;;
7529;SDS011;3806;52.270;10.544;2023-02-28T02:03:29;6.88;;;3.63;;
7529;SDS011;3806;52.270;10.544;2023-02-28T02:05:55;5.00;;;2.97;;
7529;SDS011;3806;52.270;10.544;2023-02-28T02:08:22;7.68;;;3.63;;
7529;SDS011;3806;52.270;10.544;2023-02-28T02:13:37;4.50;;;3.10;;
7529;SDS011;3806;52.270;10.544;2023-02-28T02:16:49;5.47;;;3.35;;
7529;SDS011;3806;52.270;10.544;2023-02-28T02:22:37;3.85;;;2.78;;
7529;SDS011;3806;52.270;10.544;2023-02-28T02:25:29;4.63;;;2.95;;
7529;SDS011;3806;52.270;10.544;2023-02-28T02:31:06;5.97;;;3.63;;
7529;SDS011;3806;52.270;10.544;2023-02-28T02:39:52;4.82;;;3.28;;
7529;SDS011;3806;52.270;10.544;2023-02-28T02:45:30;5.15;;;2.78;;
7529;SDS011;3806;52.270;10.544;2023-02-28T02:48:03;4.65;;;3.53;;
7529;SDS011;3806;52.270;10.544;2023-02-28T02:50:36;5.72;;;3.17;;
7529;SDS011;3806;52.270;10.544;2023-02-28T02:53:06;5.32;;;3.10;;
7529;SDS011;3806;52.270;10.544;2023-02-28T02:55:34;5.50;;;3.15;;
7529;SDS011;3806;52.270;10.544;2023-02-28T02:58:14;7.90;;;2.95;;
7529;SDS011;3806;52.270;10.544;2023-02-28T03:00:46;4.00;;;3.60;;
7529;SDS011;3806;52.270;10.544;2023-02-28T03:03:18;5.32;;;3.42;;
7529;SDS011;3806;52.270;10.544;2023-02-28T03:05:54;5.57;;;3.53;;
7529;SDS011;3806;52.270;10.544;2023-02-28T03:08:24;6.15;;;3.72;;
7529;SDS011;3806;52.270;10.544;2023-02-28T03:10:51;5.78;;;3.72;;
7529;SDS011;3806;52.270;10.544;2023-02-28T03:21:56;4.88;;;2.85;;
7529;SDS011;3806;52.270;10.544;2023-02-28T03:24:32;6.53;;;3.45;;
7529;SDS011;3806;52.270;10.544;2023-02-28T03:27:24;4.90;;;2.90;;
7529;SDS011;3806;52.270;10.544;2023-02-28T03:30:01;4.47;;;2.78;;
7529;SDS011;3806;52.270;10.544;2023-02-28T03:32:42;6.20;;;3.22;;
7529;SDS011;3806;52.270;10.544;2023-02-28T03:35:45;6.82;;;2.90;;
7529;SDS011;3806;52.270;10.544;2023-02-28T03:38:16;5.15;;;3.05;;
7529;SDS011;3806;52.270;10.544;2023-02-28T03:40:51;6.63;;;3.17;;
7529;SDS011;3806;52.270;10.544;2023-02-28T03:43:27;3.72;;;2.50;;
7529;SDS011;3806;52.270;10.544;2023-02-28T03:45:55;6.60;;;2.58;;
7529;SDS011;3806;52.270;10.544;2023-02-28T03:48:22;4.72;;;2.75;;
7529;SDS011;3806;52.270;10.544;2023-02-28T03:51:09;3.10;;;2.25;;
7529;SDS011;3806;52.270;10.544;2023-02-28T03:53:39;3.78;;;2.45;;
7529;SDS011;3806;52.270;10.544;2023-02-28T03:56:14;4.45;;;2.25;;
7529;SDS011;3806;52.270;10.544;2023-02-28T03:59:04;4.95;;;3.13;;
7529;SDS011;3806;52.270;10.544;2023-02-28T04:01:35;3.80;;;2.83;;
7529;SDS011;3806;52.270;10.544;2023-02-28T04:04:07;3.53;;;2.30;;
7529;SDS011;3806;52.270;10.544;2023-02-28T04:06:36;4.45;;;2.70;;
7529;SDS011;3806;52.270;10.544;2023-02-28T04:09:03;4.50;;;2.35;;
7529;SDS011;3806;52.270;10.544;2023-02-28T04:11:33;5.43;;;2.80;;
7529;SDS011;3806;52.270;10.544;2023-02-28T04:14:07;5.45;;;2.67;;
7529;SDS011;3806;52.270;10.544;2023-02-28T04:16:35;4.63;;;3.17;;
7529;SDS011;3806;52.270;10.544;2023-02-28T04:19:03;4.57;;;2.78;;
7529;SDS011;3806;52.270;10.544;2023-02-28T04:21:34;5.05;;;2.42;;
7529;SDS011;3806;52.270;10.544;2023-02-28T04:24:02;4.18;;;2.42;;
7529;SDS011;3806;52.270;10.544;2023-02-28T04:26:32;3.97;;;2.55;;
7529;SDS011;3806;52.270;10.544;2023-02-28T04:28:59;4.82;;;2.40;;
7529;SDS011;3806;52.270;10.544;2023-02-28T04:31:25;7.80;;;2.53;;
7529;SDS011;3806;52.270;10.544;2023-02-28T04:33:51;5.38;;;2.80;;
7529;SDS011;3806;52.270;10.544;2023-02-28T04:36:16;5.53;;;2.95;;
7529;SDS011;3806;52.270;10.544;2023-02-28T04:38:42;4.32;;;2.55;;
7529;SDS011;3806;52.270;10.544;2023-02-28T04:41:09;3.75;;;2.63;;
7529;SDS011;3806;52.270;10.544;2023-02-28T04:43:35;5.43;;;2.72;;
7529;SDS011;3806;52.270;10.544;2023-02-28T04:46:01;3.45;;;2.47;;
7529;SDS011;3806;52.270;10.544;2023-02-28T04:48:29;3.58;;;2.58;;
7529;SDS011;3806;52.270;10.544;2023-02-28T04:51:15;5.03;;;2.95;;
7529;SDS011;3806;52.270;10.544;2023-02-28T04:53:42;5.30;;;2.67;;
7529;SDS011;3806;52.270;10.544;2023-02-28T04:56:09;4.38;;;2.50;;
7529;SDS011;3806;52.270;10.544;2023-02-28T04:58:37;4.97;;;3.08;;
7529;SDS011;3806;52.270;10.544;2023-02-28T05:01:06;7.28;;;4.55;;
7529;SDS011;3806;52.270;10.544;2023-02-28T05:03:43;5.18;;;3.60;;
7529;SDS011;3806;52.270;10.544;2023-02-28T05:06:10;4.20;;;2.95;;
7529;SDS011;3806;52.270;10.544;2023-02-28T05:08:36;3.70;;;2.70;;
7529;SDS011;3806;52.270;10.544;2023-02-28T05:11:02;3.97;;;2.58;;
7529;SDS011;3806;52.270;10.544;2023-02-28T05:13:28;4.40;;;2.58;;
7529;SDS011;3806;52.270;10.544;2023-02-28T05:15:54;5.38;;;2.90;;
7529;SDS011;3806;52.270;10.544;2023-02-28T05:18:20;4.80;;;3.35;;
7529;SDS011;3806;52.270;10.544;2023-02-28T05:20:45;5.35;;;2.72;;
7529;SDS011;3806;52.270;10.544;2023-02-28T05:23:11;4.70;;;2.88;;
7529;SDS011;3806;52.270;10.544;2023-02-28T05:25:45;4.38;;;2.75;;
7529;SDS011;3806;52.270;10.544;2023-02-28T05:28:10;5.53;;;3.13;;
7529;SDS011;3806;52.270;10.544;2023-02-28T05:30:39;6.03;;;2.75;;
7529;SDS011;3806;52.270;10.544;2023-02-28T05:33:04;5.43;;;3.33;;
7529;SDS011;3806;52.270;10.544;2023-02-28T05:35:30;3.95;;;2.55;;
7529;SDS011;3806;52.270;10.544;2023-02-28T05:38:02;5.10;;;2.83;;
7529;SDS011;3806;52.270;10.544;2023-02-28T05:40:30;3.58;;;2.55;;
7529;SDS011;3806;52.270;10.544;2023-02-28T05:42:56;4.20;;;3.03;;
7529;SDS011;3806;52.270;10.544;2023-02-28T05:45:21;4.60;;;2.78;;
7529;SDS011;3806;52.270;10.544;2023-02-28T05:47:47;3.92;;;3.08;;
7529;SDS011;3806;52.270;10.544;2023-02-28T05:50:13;4.82;;;2.60;;
7529;SDS011;3806;52.270;10.544;2023-02-28T05:52:39;4.43;;;2.72;;
7529;SDS011;3806;52.270;10.544;2023-02-28T05:55:04;3.75;;;2.58;;
7529;SDS011;3806;52.270;10.544;2023-02-28T05:57:30;7.07;;;2.92;;
7529;SDS011;3806;52.270;10.544;2023-02-28T05:59:58;4.00;;;2.63;;
7529;SDS011;3806;52.270;10.544;2023-02-28T06:02:23;6.57;;;3.05;;
7529;SDS011;3806;52.270;10.544;2023-02-28T06:04:49;5.25;;;3.03;;
7529;SDS011;3806;52.270;10.544;2023-02-28T06:07:14;4.68;;;3.20;;
7529;SDS011;3806;52.270;10.544;2023-02-28T06:09:42;6.28;;;3.17;;
7529;SDS011;3806;52.270;10.544;2023-02-28T06:12:09;7.57;;;3.38;;
7529;SDS011;3806;52.270;10.544;2023-02-28T06:14:38;4.82;;;3.50;;
7529;SDS011;3806;52.270;10.544;2023-02-28T06:17:03;5.40;;;3.13;;
7529;SDS011;3806;52.270;10.544;2023-02-28T06:19:29;4.75;;;2.90;;
7529;SDS011;3806;52.270;10.544;2023-02-28T06:21:55;6.57;;;2.88;;
7529;SDS011;3806;52.270;10.544;2023-02-28T06:24:22;6.03;;;3.10;;
7529;SDS011;3806;52.270;10.544;2023-02-28T06:26:49;5.28;;;3.08;;
7529;SDS011;3806;52.270;10.544;2023-02-28T06:29:15;7.22;;;3.45;;
7529;SDS011;3806;52.270;10.544;2023-02-28T06:31:44;6.57;;;3.40;;
7529;SDS011;3806;52.270;10.544;2023-02-28T06:34:11;4.93;;;3.17;;
7529;SDS011;3806;52.270;10.544;2023-02-28T06:36:38;5.85;;;2.92;;
7529;SDS011;3806;52.270;10.544;2023-02-28T06:39:04;4.43;;;3.25;;
7529;SDS011;3806;52.270;10.544;2023-02-28T06:41:29;5.00;;;3.05;;
7529;SDS011;3806;52.270;10.544;2023-02-28T06:43:55;4.13;;;2.88;;
7529;SDS011;3806;52.270;10.544;2023-02-28T06:46:20;4.38;;;3.08;;
7529;SDS011;3806;52.270;10.544;2023-02-28T06:48:46;7.95;;;3.72;;
7529;SDS011;3806;52.270;10.544;2023-02-28T06:51:13;8.02;;;4.25;;
7529;SDS011;3806;52.270;10.544;2023-02-28T06:53:41;5.57;;;3.10;;
7529;SDS011;3806;52.270;10.544;2023-02-28T06:56:07;6.95;;;3.53;;
7529;SDS011;3806;52.270;10.544;2023-02-28T06:58:37;6.38;;;3.40;;
7529;SDS011;3806;52.270;10.544;2023-02-28T07:01:04;6.78;;;3.50;;
7529;SDS011;3806;52.270;10.544;2023-02-28T07:03:34;5.78;;;3.50;;
7529;SDS011;3806;52.270;10.544;2023-02-28T07:06:00;5.70;;;2.60;;
7529;SDS011;3806;52.270;10.544;2023-02-28T07:08:29;8.10;;;3.08;;
7529;SDS011;3806;52.270;10.544;2023-02-28T07:10:55;5.45;;;3.60;;
7529;SDS011;3806;52.270;10.544;2023-02-28T07:13:24;4.60;;;2.67;;
7529;SDS011;3806;52.270;10.544;2023-02-28T07:15:53;4.15;;;2.80;;
7529;SDS011;3806;52.270;10.544;2023-02-28T07:18:23;5.47;;;2.45;;
7529;SDS011;3806;52.270;10.544;2023-02-28T07:20:51;4.20;;;2.30;;
7529;SDS011;3806;52.270;10.544;2023-02-28T07:23:17;6.07;;;3.25;;
7529;SDS011;3806;52.270;10.544;2023-02-28T07:25:43;4.78;;;3.70;;
7529;SDS011;3806;52.270;10.544;2023-02-28T07:28:08;5.28;;;2.08;;
7529;SDS011;3806;52.270;10.544;2023-02-28T07:30:34;5.60;;;2.40;;
7529;SDS011;3806;52.270;10.544;2023-02-28T07:33:00;3.63;;;2.17;;
7529;SDS011;3806;52.270;10.544;2023-02-28T07:35:25;2.35;;;2.03;;
7529;SDS011;3806;52.270;10.544;2023-02-28T07:37:51;3.88;;;2.33;;
7529;SDS011;3806;52.270;10.544;2023-02-28T07:40:16;2.30;;;2.10;;
7529;SDS011;3806;52.270;10.544;2023-02-28T07:42:43;3.92;;;2.20;;
7529;SDS011;3806;52.270;10.544;2023-02-28T07:45:09;4.95;;;2.30;;
7529;SDS011;3806;52.270;10.544;2023-02-28T07:47:36;3.22;;;2.13;;
7529;SDS011;3806;52.270;10.544;2023-02-28T07:50:03;3.17;;;2.03;;
7529;SDS011;3806;52.270;10.544;2023-02-28T07:52:30;2.28;;;1.98;;
7529;SDS011;3806;52.270;10.544;2023-02-28T07:54:55;5.03;;;2.58;;
7529;SDS011;3806;52.270;10.544;2023-02-28T07:57:21;2.10;;;1.80;;
7529;SDS011;3806;52.270;10.544;2023-02-28T07:59:47;2.58;;;1.63;;
7529;SDS011;3806;52.270;10.544;2023-02-28T08:02:16;3.63;;;2.05;;
7529;SDS011;3806;52.270;10.544;2023-02-28T08:04:43;3.65;;;2.00;;
7529;SDS011;3806;52.270;10.544;2023-02-28T08:07:09;2.25;;;1.92;;
7529;SDS011;3806;52.270;10.544;2023-02-28T08:09:38;7.63;;;2.53;;
7529;SDS011;3806;52.270;10.544;2023-02-28T08:12:04;4.35;;;2.45;;
7529;SDS011;3806;52.270;10.544;2023-02-28T08:14:29;3.55;;;2.13;;
7529;SDS011;3806;52.270;10.544;2023-02-28T08:16:55;3.90;;;2.33;;
7529;SDS011;3806;52.270;10.544;2023-02-28T08:19:20;8.90;;;2.60;;
7529;SDS011;3806;52.270;10.544;2023-02-28T08:21:46;4.30;;;2.50;;
7529;SDS011;3806;52.270;10.544;2023-02-28T08:24:11;4.45;;;2.15;;
7529;SDS011;3806;52.270;10.544;2023-02-28T08:26:37;3.72;;;2.60;;
7529;SDS011;3806;52.270;10.544;2023-02-28T08:29:02;4.05;;;2.63;;
7529;SDS011;3806;52.270;10.544;2023-02-28T08:31:30;3.22;;;2.45;;
7529;SDS011;3806;52.270;10.544;2023-02-28T08:33:56;3.75;;;2.30;;
7529;SDS011;3806;52.270;10.544;2023-02-28T08:36:24;4.05;;;2.03;;
7529;SDS011;3806;52.270;10.544;2023-02-28T08:38:50;3.45;;;2.03;;
7529;SDS011;3806;52.270;10.544;2023-02-28T08:41:16;6.07;;;2.60;;
7529;SDS011;3806;52.270;10.544;2023-02-28T08:43:42;4.03;;;2.72;;
7529;SDS011;3806;52.270;10.544;2023-02-28T08:46:08;4.60;;;2.22;;
7529;SDS011;3806;52.270;10.544;2023-02-28T08:48:37;3.63;;;1.80;;
7529;SDS011;3806;52.270;10.544;2023-02-28T08:51:04;3.30;;;2.08;;
7529;SDS011;3806;52.270;10.544;2023-02-28T08:53:32;2.75;;;1.92;;
7529;SDS011;3806;52.270;10.544;2023-02-28T08:58:24;3.00;;;1.95;;
7529;SDS011;3806;52.270;10.544;2023-02-28T09:00:50;2.22;;;1.40;;
7529;SDS011;3806;52.270;10.544;2023-02-28T09:03:16;4.50;;;1.70;;
7529;SDS011;3806;52.270;10.544;2023-02-28T09:05:50;2.97;;;1.88;;
7529;SDS011;3806;52.270;10.544;2023-02-28T09:08:19;2.70;;;1.73;;
7529;SDS011;3806;52.270;10.544;2023-02-28T09:10:44;3.35;;;1.92;;
7529;SDS011;3806;52.270;10.544;2023-02-28T09:13:10;3.90;;;1.75;;
7529;SDS011;3806;52.270;10.544;2023-02-28T09:15:37;2.85;;;1.40;;
7529;SDS011;3806;52.270;10.544;2023-02-28T09:18:02;2.75;;;1.75;;
7529;SDS011;3806;52.270;10.544;2023-02-28T09:20:30;3.42;;;1.92;;
7529;SDS011;3806;52.270;10.544;2023-02-28T09:22:58;3.35;;;1.83;;
7529;SDS011;3806;52.270;10.544;2023-02-28T09:25:24;2.53;;;1.73;;
7529;SDS011;3806;52.270;10.544;2023-02-28T09:27:49;3.28;;;1.95;;
7529;SDS011;3806;52.270;10.544;2023-02-28T09:30:15;2.45;;;1.70;;
7529;SDS011;3806;52.270;10.544;2023-02-28T09:32:41;2.90;;;1.75;;
7529;SDS011;3806;52.270;10.544;2023-02-28T09:35:06;3.90;;;2.10;;
7529;SDS011;3806;52.270;10.544;2023-02-28T09:37:38;2.63;;;2.00;;
7529;SDS011;3806;52.270;10.544;2023-02-28T09:40:03;3.15;;;1.92;;
7529;SDS011;3806;52.270;10.544;2023-02-28T09:42:33;6.70;;;1.88;;
7529;SDS011;3806;52.270;10.544;2023-02-28T09:45:00;3.00;;;1.70;;
7529;SDS011;3806;52.270;10.544;2023-02-28T09:47:35;3.50;;;1.85;;
7529;SDS011;3806;52.270;10.544;2023-02-28T09:52:54;3.17;;;1.73;;
7529;SDS011;3806;52.270;10.544;2023-02-28T09:55:28;3.15;;;1.50;;
7529;SDS011;3806;52.270;10.544;2023-02-28T10:00:59;2.95;;;1.63;;
7529;SDS011;3806;52.270;10.544;2023-02-28T10:03:32;3.53;;;1.75;;
7529;SDS011;3806;52.270;10.544;2023-02-28T10:06:06;1.88;;;1.27;;
7529;SDS011;3806;52.270;10.544;2023-02-28T10:11:19;2.25;;;1.33;;
7529;SDS011;3806;52.270;10.544;2023-02-28T10:14:02;2.30;;;1.30;;
7529;SDS011;3806;52.270;10.544;2023-02-28T10:16:35;1.90;;;1.50;;
7529;SDS011;3806;52.270;10.544;2023-02-28T10:19:11;4.10;;;1.88;;
7529;SDS011;3806;52.270;10.544;2023-02-28T10:21:46;2.42;;;1.30;;
7529;SDS011;3806;52.270;10.544;2023-02-28T10:24:35;1.73;;;1.20;;
7529;SDS011;3806;52.270;10.544;2023-02-28T10:27:13;2.70;;;1.40;;
7529;SDS011;3806;52.270;10.544;2023-02-28T10:29:49;1.48;;;1.13;;
7529;SDS011;3806;52.270;10.544;2023-02-28T10:32:20;3.58;;;1.83;;
7529;SDS011;3806;52.270;10.544;2023-02-28T10:37:32;4.60;;;1.80;;
7529;SDS011;3806;52.270;10.544;2023-02-28T10:40:03;2.22;;;1.25;;
7529;SDS011;3806;52.270;10.544;2023-02-28T10:42:31;2.00;;;1.42;;
7529;SDS011;3806;52.270;10.544;2023-02-28T10:45:13;2.30;;;1.30;;
7529;SDS011;3806;52.270;10.544;2023-02-28T10:47:52;2.58;;;1.23;;
7529;SDS011;3806;52.270;10.544;2023-02-28T10:50:26;3.15;;;1.10;;
7529;SDS011;3806;52.270;10.544;2023-02-28T10:52:54;2.35;;;1.10;;
7529;SDS011;3806;52.270;10.544;2023-02-28T10:55:22;1.98;;;1.10;;
7529;SDS011;3806;52.270;10.544;2023-02-28T10:57:50;3.10;;;1.17;;
7529;SDS011;3806;52.270;10.544;2023-02-28T11:00:18;1.30;;;0.85;;
7529;SDS011;3806;52.270;10.544;2023-02-28T11:02:46;2.03;;;1.02;;
7529;SDS011;3806;52.270;10.544;2023-02-28T11:07:55;2.90;;;0.90;;
7529;SDS011;3806;52.270;10.544;2023-02-28T11:10:25;2.97;;;1.17;;
7529;SDS011;3806;52.270;10.544;2023-02-28T11:12:54;2.90;;;1.20;;
7529;SDS011;3806;52.270;10.544;2023-02-28T11:15:26;2.58;;;1.40;;
7529;SDS011;3806;52.270;10.544;2023-02-28T11:17:53;1.70;;;1.15;;
7529;SDS011;3806;52.270;10.544;2023-02-28T11:20:23;2.28;;;1.27;;
7529;SDS011;3806;52.270;10.544;2023-02-28T11:22:54;1.73;;;1.40;;
7529;SDS011;3806;52.270;10.544;2023-02-28T11:25:22;2.80;;;1.20;;
7529;SDS011;3806;52.270;10.544;2023-02-28T11:28:01;3.08;;;1.85;;
7529;SDS011;3806;52.270;10.544;2023-02-28T11:30:37;2.22;;;1.17;;
7529;SDS011;3806;52.270;10.544;2023-02-28T11:33:22;2.03;;;1.23;;
7529;SDS011;3806;52.270;10.544;2023-02-28T11:35:47;2.88;;;1.40;;
7529;SDS011;3806;52.270;10.544;2023-02-28T11:38:14;2.22;;;1.50;;
7529;SDS011;3806;52.270;10.544;2023-02-28T11:40:48;2.47;;;1.25;;
7529;SDS011;3806;52.270;10.544;2023-02-28T11:44:05;2.13;;;1.33;;
7529;SDS011;3806;52.270;10.544;2023-02-28T11:49:07;2.15;;;1.65;;
7529;SDS011;3806;52.270;10.544;2023-02-28T11:51:48;1.95;;;1.15;;
7529;SDS011;3806;52.270;10.544;2023-02-28T11:54:29;2.53;;;1.30;;
7529;SDS011;3806;52.270;10.544;2023-02-28T11:57:23;1.55;;;1.15;;
7529;SDS011;3806;52.270;10.544;2023-02-28T12:06:23;1.85;;;1.23;;
7529;SDS011;3806;52.270;10.544;2023-02-28T12:14:50;2.60;;;1.60;;
7529;SDS011;3806;52.270;10.544;2023-02-28T12:17:22;2.28;;;1.25;;
7529;SDS011;3806;52.270;10.544;2023-02-28T12:20:08;2.47;;;1.55;;
7529;SDS011;3806;52.270;10.544;2023-02-28T12:28:06;2.40;;;1.45;;
7529;SDS011;3806;52.270;10.544;2023-02-28T12:30:36;2.05;;;1.38;;
7529;SDS011;3806;52.270;10.544;2023-02-28T12:33:08;3.08;;;1.60;;
7529;SDS011;3806;52.270;10.544;2023-02-28T12:35:38;3.35;;;1.55;;
7529;SDS011;3806;52.270;10.544;2023-02-28T12:38:22;6.27;;;1.37;;
7529;SDS011;3806;52.270;10.544;2023-02-28T12:41:12;2.08;;;1.30;;
7529;SDS011;3806;52.270;10.544;2023-02-28T12:43:43;2.22;;;1.90;;
7529;SDS011;3806;52.270;10.544;2023-02-28T12:46:19;1.80;;;1.30;;
7529;SDS011;3806;52.270;10.544;2023-02-28T12:48:53;2.35;;;1.25;;
7529;SDS011;3806;52.270;10.544;2023-02-28T12:51:21;2.22;;;1.67;;
7529;SDS011;3806;52.270;10.544;2023-02-28T12:53:54;2.85;;;1.65;;
7529;SDS011;3806;52.270;10.544;2023-02-28T12:56:46;3.05;;;1.75;;
7529;SDS011;3806;52.270;10.544;2023-02-28T13:08:08;3.58;;;1.90;;
7529;SDS011;3806;52.270;10.544;2023-02-28T13:10:53;2.65;;;1.40;;
7529;SDS011;3806;52.270;10.544;2023-02-28T13:13:20;2.72;;;1.48;;
7529;SDS011;3806;52.270;10.544;2023-02-28T13:16:00;2.08;;;1.23;;
7529;SDS011;3806;52.270;10.544;2023-02-28T13:18:32;2.33;;;1.67;;
7529;SDS011;3806;52.270;10.544;2023-02-28T13:21:02;2.38;;;1.27;;
7529;SDS011;3806;52.270;10.544;2023-02-28T13:26:20;3.70;;;1.63;;
7529;SDS011;3806;52.270;10.544;2023-02-28T13:31:23;2.33;;;1.63;;
7529;SDS011;3806;52.270;10.544;2023-02-28T13:36:30;3.58;;;1.75;;
7529;SDS011;3806;52.270;10.544;2023-02-28T13:46:27;2.92;;;1.45;;
7529;SDS011;3806;52.270;10.544;2023-02-28T13:48:53;2.35;;;1.83;;
7529;SDS011;3806;52.270;10.544;2023-02-28T13:54:19;1.88;;;1.65;;
7529;SDS011;3806;52.270;10.544;2023-02-28T14:02:52;2.38;;;1.50;;
7529;SDS011;3806;52.270;10.544;2023-02-28T14:05:35;3.35;;;2.08;;
7529;SDS011;3806;52.270;10.544;2023-02-28T14:08:06;3.28;;;1.98;;
7529;SDS011;3806;52.270;10.544;2023-02-28T14:10:42;1.40;;;1.30;;
7529;SDS011;3806;52.270;10.544;2023-02-28T14:16:16;2.17;;;1.55;;
7529;SDS011;3806;52.270;10.544;2023-02-28T14:18:55;2.15;;;1.55;;
7529;SDS011;3806;52.270;10.544;2023-02-28T14:21:35;2.47;;;1.50;;
7529;SDS011;3806;52.270;10.544;2023-02-28T14:35:58;3.13;;;1.73;;
7529;SDS011;3806;52.270;10.544;2023-02-28T14:38:45;3.35;;;1.92;;
7529;SDS011;3806;52.270;10.544;2023-02-28T14:41:21;3.70;;;1.58;;
7529;SDS011;3806;52.270;10.544;2023-02-28T14:43:48;2.97;;;1.80;;
7529;SDS011;3806;52.270;10.544;2023-02-28T14:46:15;4.50;;;1.98;;
7529;SDS011;3806;52.270;10.544;2023-02-28T14:48:44;2.33;;;1.63;;
7529;SDS011;3806;52.270;10.544;2023-02-28T14:51:17;2.85;;;1.70;;
7529;SDS011;3806;52.270;10.544;2023-02-28T14:53:49;2.83;;;1.90;;
7529;SDS011;3806;52.270;10.544;2023-02-28T14:56:19;2.35;;;1.80;;
7529;SDS011;3806;52.270;10.544;2023-02-28T14:58:51;2.83;;;1.60;;
7529;SDS011;3806;52.270;10.544;2023-02-28T15:01:20;2.83;;;1.60;;
7529;SDS011;3806;52.270;10.544;2023-02-28T15:03:47;2.42;;;1.70;;
7529;SDS011;3806;52.270;10.544;2023-02-28T15:06:16;3.53;;;2.33;;
7529;SDS011;3806;52.270;10.544;2023-02-28T15:08:43;3.33;;;1.80;;
7529;SDS011;3806;52.270;10.544;2023-02-28T15:11:16;3.95;;;1.67;;
7529;SDS011;3806;52.270;10.544;2023-02-28T15:13:47;1.80;;;1.55;;
7529;SDS011;3806;52.270;10.544;2023-02-28T15:16:17;3.03;;;2.22;;
7529;SDS011;3806;52.270;10.544;2023-02-28T15:18:49;2.53;;;1.83;;
7529;SDS011;3806;52.270;10.544;2023-02-28T15:21:25;2.42;;;1.83;;
7529;SDS011;3806;52.270;10.544;2023-02-28T15:23:55;4.30;;;2.17;;
7529;SDS011;3806;52.270;10.544;2023-02-28T15:26:22;2.13;;;1.92;;
7529;SDS011;3806;52.270;10.544;2023-02-28T15:28:52;4.95;;;2.15;;
7529;SDS011;3806;52.270;10.544;2023-02-28T15:31:26;3.95;;;1.98;;
7529;SDS011;3806;52.270;10.544;2023-02-28T15:33:58;3.03;;;2.10;;
7529;SDS011;3806;52.270;10.544;2023-02-28T15:36:30;2.25;;;1.80;;
7529;SDS011;3806;52.270;10.544;2023-02-28T15:38:58;4.72;;;1.60;;
7529;SDS011;3806;52.270;10.544;2023-02-28T15:41:28;3.60;;;2.67;;
7529;SDS011;3806;52.270;10.544;2023-02-28T15:46:43;4.57;;;2.88;;
7529;SDS011;3806;52.270;10.544;2023-02-28T15:49:19;4.40;;;2.15;;
7529;SDS011;3806;52.270;10.544;2023-02-28T15:51:46;4.10;;;2.15;;
7529;SDS011;3806;52.270;10.544;2023-02-28T15:54:19;3.15;;;1.98;;
7529;SDS011;3806;52.270;10.544;2023-02-28T15:56:50;2.60;;;1.90;;
7529;SDS011;3806;52.270;10.544;2023-02-28T15:59:18;3.20;;;1.85;;
7529;SDS011;3806;52.270;10.544;2023-02-28T16:01:47;3.47;;;2.10;;
7529;SDS011;3806;52.270;10.544;2023-02-28T16:04:54;2.35;;;1.90;;
7529;SDS011;3806;52.270;10.544;2023-02-28T16:07:24;2.05;;;1.65;;
7529;SDS011;3806;52.270;10.544;2023-02-28T16:09:50;2.80;;;1.75;;
7529;SDS011;3806;52.270;10.544;2023-02-28T16:12:16;6.10;;;2.78;;
7529;SDS011;3806;52.270;10.544;2023-02-28T16:14:42;3.42;;;1.90;;
7529;SDS011;3806;52.270;10.544;2023-02-28T16:17:15;2.42;;;1.90;;
7529;SDS011;3806;52.270;10.544;2023-02-28T16:19:46;2.85;;;1.75;;
7529;SDS011;3806;52.270;10.544;2023-02-28T16:22:12;2.63;;;1.83;;
7529;SDS011;3806;52.270;10.544;2023-02-28T16:24:37;3.92;;;1.80;;
7529;SDS011;3806;52.270;10.544;2023-02-28T16:27:05;3.13;;;2.22;;
7529;SDS011;3806;52.270;10.544;2023-02-28T16:29:32;5.07;;;2.08;;
7529;SDS011;3806;52.270;10.544;2023-02-28T16:31:59;5.75;;;1.77;;
7529;SDS011;3806;52.270;10.544;2023-02-28T16:34:28;2.92;;;1.80;;
7529;SDS011;3806;52.270;10.544;2023-02-28T16:36:54;3.67;;;1.95;;
7529;SDS011;3806;52.270;10.544;2023-02-28T16:39:19;3.17;;;1.80;;
7529;SDS011;3806;52.270;10.544;2023-02-28T16:41:45;2.85;;;1.88;;
7529;SDS011;3806;52.270;10.544;2023-02-28T16:44:26;4.78;;;1.63;;
7529;SDS011;3806;52.270;10.544;2023-02-28T16:46:54;5.20;;;2.13;;
7529;SDS011;3806;52.270;10.544;2023-02-28T16:49:19;3.88;;;1.92;;
7529;SDS011;3806;52.270;10.544;2023-02-28T16:51:45;4.30;;;2.35;;
7529;SDS011;3806;52.270;10.544;2023-02-28T16:54:11;3.47;;;1.95;;
7529;SDS011;3806;52.270;10.544;2023-02-28T16:56:37;2.70;;;1.85;;
7529;SDS011;3806;52.270;10.544;2023-02-28T16:59:08;3.85;;;2.58;;
7529;SDS011;3806;52.270;10.544;2023-02-28T17:01:36;3.72;;;2.47;;
7529;SDS011;3806;52.270;10.544;2023-02-28T17:04:02;3.92;;;2.05;;
7529;SDS011;3806;52.270;10.544;2023-02-28T17:06:31;4.90;;;2.85;;
7529;SDS011;3806;52.270;10.544;2023-02-28T17:08:57;24.88;;;11.75;;
7529;SDS011;3806;52.270;10.544;2023-02-28T17:11:27;13.55;;;8.07;;
7529;SDS011;3806;52.270;10.544;2023-02-28T17:13:53;9.95;;;5.53;;